createdAt,value
2019-04-23T00:00:20.251Z,0.00
2019-04-23T00:02:19.211Z,0.00
2019-04-23T00:03:18.817Z,0.00
2019-04-23T00:04:20.451Z,0.00
2019-04-23T00:05:29.133Z,0.00
2019-04-23T00:07:43.145Z,0.00
2019-04-23T00:08:42.221Z,0.00
2019-04-23T00:11:30.788Z,0.00
2019-04-23T00:12:32.711Z,0.00
2019-04-23T00:13:24.565Z,0.00
2019-04-23T00:15:23.991Z,0.00
2019-04-23T00:16:26.371Z,0.00
2019-04-23T00:17:22.609Z,0.00
2019-04-23T00:18:35.558Z,0.00
2019-04-23T00:20:20.105Z,0.00
2019-04-23T00:21:24.805Z,0.00
2019-04-23T00:22:19.974Z,0.00
2019-04-23T00:23:18.912Z,0.00
2019-04-23T00:24:32.019Z,0.00
2019-04-23T00:26:33.305Z,0.00
2019-04-23T00:29:28.073Z,0.00
2019-04-23T00:30:27.563Z,0.00
2019-04-23T00:31:24.598Z,0.00
2019-04-23T00:32:31.886Z,0.00
2019-04-23T00:34:26.050Z,0.00
2019-04-23T00:35:18.155Z,0.00
2019-04-23T00:36:27.522Z,0.00
2019-04-23T00:37:25.705Z,0.00
2019-04-23T00:38:26.516Z,0.00
2019-04-23T00:39:26.448Z,0.00
2019-04-23T00:40:21.793Z,0.00
2019-04-23T00:41:25.340Z,0.00
2019-04-23T00:42:31.331Z,0.00
2019-04-23T00:43:32.594Z,0.00
2019-04-23T00:44:22.882Z,0.00
2019-04-23T00:45:24.700Z,0.00
2019-04-23T00:46:23.362Z,0.00
2019-04-23T00:47:25.649Z,0.00
2019-04-23T00:48:29.400Z,0.00
2019-04-23T00:49:27.331Z,0.00
2019-04-23T00:51:20.246Z,0.00
2019-04-23T00:52:24.726Z,0.00
2019-04-23T00:53:23.115Z,0.00
2019-04-23T00:54:28.825Z,0.00
2019-04-23T00:55:35.643Z,0.00
2019-04-23T00:57:24.282Z,0.00
2019-04-23T00:59:20.998Z,0.00
2019-04-23T01:00:31.319Z,0.00
2019-04-23T01:01:18.292Z,0.00
2019-04-23T01:02:23.779Z,0.00
2019-04-23T01:03:17.535Z,0.00
2019-04-23T01:04:17.300Z,0.00
2019-04-23T01:05:24.810Z,0.00
2019-04-23T01:06:19.326Z,0.00
2019-04-23T01:07:18.766Z,0.00
2019-04-23T01:09:22.232Z,0.00
2019-04-23T01:10:25.568Z,0.00
2019-04-23T01:11:21.211Z,0.00
2019-04-23T01:12:29.920Z,0.00
2019-04-23T01:13:22.977Z,0.00
2019-04-23T01:14:20.257Z,0.00
2019-04-23T01:15:26.055Z,0.00
2019-04-23T01:16:18.201Z,0.00
2019-04-23T01:17:28.985Z,0.00
2019-04-23T01:18:32.101Z,0.00
2019-04-23T01:19:28.468Z,0.00
2019-04-23T01:20:22.370Z,0.00
2019-04-23T01:20:58.760Z,0.00
2019-04-23T01:22:00.036Z,0.00
2019-04-23T01:22:59.062Z,0.00
2019-04-23T01:24:05.698Z,0.00
2019-04-23T01:25:11.243Z,0.00
2019-04-23T01:26:18.127Z,0.00
2019-04-23T01:28:42.070Z,0.00
2019-04-23T01:29:28.306Z,0.00
2019-04-23T01:30:22.196Z,0.00
2019-04-23T01:32:25.700Z,0.00
2019-04-23T01:33:35.816Z,0.00
2019-04-23T01:34:24.475Z,0.00
2019-04-23T01:35:36.018Z,0.00
2019-04-23T01:37:26.801Z,0.00
2019-04-23T01:38:27.938Z,0.00
2019-04-23T01:39:23.291Z,0.00
2019-04-23T01:40:29.840Z,0.00
2019-04-23T01:41:30.365Z,0.00
2019-04-23T01:42:29.347Z,0.00
2019-04-23T01:43:23.502Z,0.00
2019-04-23T01:44:32.785Z,0.00
2019-04-23T01:45:30.707Z,0.00
2019-04-23T01:46:27.309Z,0.00
2019-04-23T01:47:25.197Z,0.00
2019-04-23T01:48:26.172Z,0.00
2019-04-23T01:49:31.208Z,0.00
2019-04-23T01:51:26.493Z,0.00
2019-04-23T01:52:31.934Z,0.00
2019-04-23T01:53:26.808Z,0.00
2019-04-23T01:54:25.965Z,0.00
2019-04-23T01:55:26.359Z,0.00
2019-04-23T01:56:25.972Z,0.00
2019-04-23T01:57:28.922Z,0.00
2019-04-23T01:59:24.627Z,0.00
2019-04-23T02:01:25.333Z,0.00
2019-04-23T02:02:33.319Z,0.00
2019-04-23T02:03:20.692Z,0.00
2019-04-23T02:04:22.969Z,0.00
2019-04-23T02:06:25.117Z,0.00
2019-04-23T02:07:29.945Z,0.00
2019-04-23T02:08:19.960Z,0.00
2019-04-23T02:09:25.489Z,0.00
2019-04-23T02:10:29.781Z,0.00
2019-04-23T02:11:16.425Z,0.00
2019-04-23T02:12:28.925Z,0.00
2019-04-23T02:15:23.008Z,0.00
2019-04-23T02:16:24.642Z,0.00
2019-04-23T02:17:23.335Z,0.00
2019-04-23T02:18:23.393Z,0.00
2019-04-23T02:19:23.546Z,0.00
2019-04-23T02:21:25.770Z,0.00
2019-04-23T02:22:31.629Z,0.00
2019-04-23T02:23:24.652Z,0.00
2019-04-23T02:24:30.415Z,0.00
2019-04-23T02:25:31.705Z,0.00
2019-04-23T02:27:28.082Z,0.00
2019-04-23T02:28:28.575Z,0.00
2019-04-23T02:29:36.560Z,0.00
2019-04-23T02:31:44.898Z,0.00
2019-04-23T02:32:29.034Z,0.00
2019-04-23T02:33:34.414Z,0.00
2019-04-23T02:34:51.258Z,0.00
2019-04-23T02:35:46.782Z,0.00
2019-04-23T02:36:32.330Z,0.00
2019-04-23T02:37:49.286Z,0.00
2019-04-23T02:39:31.218Z,0.00
2019-04-23T02:40:43.409Z,0.00
2019-04-23T02:41:34.678Z,0.00
2019-04-23T02:44:30.354Z,0.00
2019-04-23T02:45:45.931Z,0.00
2019-04-23T02:46:15.536Z,0.00
2019-04-23T02:47:32.634Z,0.00
2019-04-23T02:49:36.047Z,0.00
2019-04-23T02:51:35.270Z,0.00
2019-04-23T02:52:32.112Z,0.00
2019-04-23T02:53:37.639Z,0.00
2019-04-23T02:54:44.582Z,0.00
2019-04-23T02:55:38.532Z,0.00
2019-04-23T02:57:33.404Z,0.00
2019-04-23T02:59:56.037Z,0.00
2019-04-23T03:01:03.584Z,0.00
2019-04-23T03:04:33.962Z,0.00
2019-04-23T03:05:26.350Z,0.00
2019-04-23T03:06:29.116Z,0.00
2019-04-23T03:07:37.632Z,0.00
2019-04-23T03:10:31.731Z,0.00
2019-04-23T03:12:31.793Z,0.00
2019-04-23T03:13:35.328Z,0.00
2019-04-23T03:15:43.626Z,0.00
2019-04-23T03:17:27.372Z,0.00
2019-04-23T03:20:43.602Z,0.00
2019-04-23T03:22:30.175Z,0.00
2019-04-23T03:23:32.020Z,0.00
2019-04-23T03:25:36.180Z,0.00
2019-04-23T03:26:45.487Z,0.00
2019-04-23T03:27:31.901Z,0.00
2019-04-23T03:28:37.665Z,0.00
2019-04-23T03:29:38.133Z,0.00
2019-04-23T03:30:48.687Z,0.00
2019-04-23T03:33:02.187Z,0.00
2019-04-23T03:35:16.085Z,0.00
2019-04-23T03:36:01.682Z,0.00
2019-04-23T03:37:00.577Z,0.00
2019-04-23T03:37:33.979Z,0.00
2019-04-23T03:38:41.670Z,0.00
2019-04-23T03:39:40.253Z,0.00
2019-04-23T03:40:18.805Z,0.00
2019-04-23T03:41:31.964Z,0.00
2019-04-23T03:42:42.740Z,0.00
2019-04-23T03:43:33.248Z,0.00
2019-04-23T03:44:29.116Z,0.00
2019-04-23T03:45:37.052Z,0.00
2019-04-23T03:47:32.516Z,0.00
2019-04-23T03:48:34.099Z,0.00
2019-04-23T03:49:33.340Z,0.00
2019-04-23T03:50:29.895Z,0.00
2019-04-23T03:51:38.300Z,0.00
2019-04-23T03:53:38.696Z,0.00
2019-04-23T03:55:45.390Z,0.00
2019-04-23T03:56:41.673Z,0.00
2019-04-23T03:58:39.063Z,0.00
2019-04-23T03:59:36.936Z,0.00
2019-04-23T04:00:32.698Z,0.00
2019-04-23T04:01:30.080Z,0.00
2019-04-23T04:02:39.870Z,0.00
2019-04-23T04:05:45.425Z,0.00
2019-04-23T04:06:37.526Z,0.00
2019-04-23T04:07:49.476Z,0.00
2019-04-23T04:10:25.354Z,0.00
2019-04-23T04:12:29.190Z,0.00
2019-04-23T04:15:47.093Z,0.00
2019-04-23T04:16:28.258Z,0.00
2019-04-23T04:18:38.938Z,0.00
2019-04-23T04:19:32.023Z,0.00
2019-04-23T04:20:33.034Z,0.00
2019-04-23T04:21:45.890Z,0.00
2019-04-23T04:24:36.770Z,0.00
2019-04-23T04:28:27.835Z,0.00
2019-04-23T04:30:38.823Z,0.00
2019-04-23T04:31:34.698Z,0.00
2019-04-23T04:32:53.334Z,0.00
2019-04-23T04:35:22.190Z,0.00
2019-04-23T04:39:29.287Z,0.00
2019-04-23T04:41:34.528Z,0.00
2019-04-23T04:42:28.569Z,0.00
2019-04-23T04:43:31.666Z,0.00
2019-04-23T04:45:47.360Z,0.00
2019-04-23T04:47:42.427Z,0.00
2019-04-23T04:48:26.104Z,0.00
2019-04-23T04:49:34.239Z,0.00
2019-04-23T04:50:28.453Z,0.00
2019-04-23T04:54:22.547Z,0.00
2019-04-23T04:55:28.367Z,0.00
2019-04-23T04:56:32.687Z,0.00
2019-04-23T04:59:25.751Z,0.00
2019-04-23T05:00:34.725Z,0.00
2019-04-23T05:01:23.221Z,0.00
2019-04-23T05:02:53.836Z,0.00
2019-04-23T05:03:23.910Z,0.00
2019-04-23T05:04:26.707Z,0.00
2019-04-23T05:05:54.184Z,0.00
2019-04-23T05:07:40.371Z,0.00
2019-04-23T05:08:29.118Z,0.00
2019-04-23T05:09:29.290Z,0.00
2019-04-23T05:10:32.445Z,0.00
2019-04-23T05:11:35.097Z,0.00
2019-04-23T05:12:30.737Z,0.00
2019-04-23T05:14:33.441Z,0.00
2019-04-23T05:15:17.299Z,0.00
2019-04-23T05:17:30.199Z,0.00
2019-04-23T05:18:28.802Z,0.00
2019-04-23T05:21:20.243Z,0.00
2019-04-23T05:22:24.584Z,0.00
2019-04-23T05:23:28.415Z,0.00
2019-04-23T05:24:21.813Z,0.00
2019-04-23T05:25:17.435Z,0.00
2019-04-23T05:26:27.471Z,0.00
2019-04-23T05:27:17.565Z,0.00
2019-04-23T05:28:25.049Z,0.00
2019-04-23T05:29:14.721Z,0.00
2019-04-23T05:30:24.807Z,0.00
2019-04-23T05:31:23.261Z,0.00
2019-04-23T05:32:19.478Z,0.00
2019-04-23T05:33:23.780Z,0.00
2019-04-23T05:34:17.535Z,0.00
2019-04-23T05:35:42.829Z,0.00
2019-04-23T05:37:29.392Z,0.00
2019-04-23T05:38:35.824Z,0.00
2019-04-23T05:40:30.624Z,0.00
2019-04-23T05:41:21.939Z,0.00
2019-04-23T05:42:19.848Z,0.00
2019-04-23T05:43:22.379Z,0.00
2019-04-23T05:44:21.222Z,0.00
2019-04-23T05:45:21.685Z,0.00
2019-04-23T05:46:26.361Z,0.00
2019-04-23T05:47:23.237Z,0.00
2019-04-23T05:48:23.403Z,0.00
2019-04-23T05:49:22.738Z,0.00
2019-04-23T05:50:30.224Z,0.00
2019-04-23T05:52:24.469Z,0.00
2019-04-23T05:53:18.636Z,0.00
2019-04-23T05:54:29.915Z,0.00
2019-04-23T05:55:38.438Z,0.00
2019-04-23T05:56:21.235Z,0.00
2019-04-23T05:57:13.954Z,0.00
2019-04-23T05:58:26.142Z,0.00
2019-04-23T05:59:18.047Z,0.00
2019-04-23T06:01:47.210Z,0.00
2019-04-23T06:02:20.771Z,0.00
2019-04-23T06:03:21.306Z,0.00
2019-04-23T06:05:30.566Z,0.00
2019-04-23T06:06:36.118Z,0.00
2019-04-23T06:08:25.792Z,0.00
2019-04-23T06:09:22.143Z,0.00
2019-04-23T06:10:23.400Z,0.00
2019-04-23T06:11:33.238Z,0.00
2019-04-23T06:12:15.678Z,0.00
2019-04-23T06:13:18.661Z,0.00
2019-04-23T06:14:18.724Z,0.00
2019-04-23T06:15:20.282Z,0.00
2019-04-23T06:16:22.346Z,0.00
2019-04-23T06:18:28.561Z,0.00
2019-04-23T06:19:17.122Z,0.00
2019-04-23T06:20:31.628Z,0.00
2019-04-23T06:22:34.957Z,0.00
2019-04-23T06:23:43.587Z,0.00
2019-04-23T06:24:26.134Z,0.00
2019-04-23T06:25:30.691Z,0.00
2019-04-23T06:27:21.733Z,0.00
2019-04-23T06:28:21.223Z,0.00
2019-04-23T06:29:37.558Z,0.00
2019-04-23T06:30:40.728Z,0.00
2019-04-23T06:31:24.510Z,0.00
2019-04-23T06:32:23.156Z,0.00
2019-04-23T06:33:21.070Z,0.00
2019-04-23T06:34:27.222Z,0.00
2019-04-23T06:35:19.127Z,0.00
2019-04-23T06:36:19.564Z,0.00
2019-04-23T06:37:21.425Z,0.00
2019-04-23T06:39:15.859Z,0.00
2019-04-23T06:40:23.648Z,0.00
2019-04-23T06:41:21.921Z,0.00
2019-04-23T06:42:18.008Z,0.00
2019-04-23T06:43:22.559Z,0.00
2019-04-23T06:44:28.472Z,0.00
2019-04-23T06:45:18.676Z,0.00
2019-04-23T06:46:20.101Z,0.00
2019-04-23T06:47:16.794Z,0.00
2019-04-23T06:48:22.172Z,0.00
2019-04-23T06:49:26.452Z,0.00
2019-04-23T06:50:11.743Z,0.00
2019-04-23T06:51:22.038Z,0.00
2019-04-23T06:52:18.993Z,0.00
2019-04-23T06:53:14.819Z,0.00
2019-04-23T06:54:19.278Z,0.00
2019-04-23T06:55:20.498Z,0.00
2019-04-23T06:56:21.057Z,0.00
2019-04-23T06:57:18.001Z,0.00
2019-04-23T06:58:26.259Z,0.00
2019-04-23T06:59:22.346Z,0.00
2019-04-23T07:00:21.172Z,0.00
2019-04-23T07:01:37.852Z,0.00
2019-04-23T07:02:33.808Z,0.00
2019-04-23T07:03:22.154Z,0.00
2019-04-23T07:04:17.918Z,0.00
2019-04-23T07:05:25.311Z,0.00
2019-04-23T07:07:37.832Z,0.00
2019-04-23T07:08:22.426Z,0.00
2019-04-23T07:10:18.687Z,0.00
2019-04-23T07:11:28.767Z,0.00
2019-04-23T07:12:20.421Z,0.00
2019-04-23T07:13:21.219Z,0.00
2019-04-23T07:14:17.076Z,0.00
2019-04-23T07:16:17.911Z,0.00
2019-04-23T07:17:16.738Z,0.00
2019-04-23T07:18:16.172Z,0.00
2019-04-23T07:21:30.613Z,0.00
2019-04-23T07:22:16.011Z,0.00
2019-04-23T07:23:26.054Z,0.00
2019-04-23T07:24:15.214Z,0.00
2019-04-23T07:25:17.304Z,0.00
2019-04-23T07:26:36.343Z,0.00
2019-04-23T07:27:19.137Z,0.00
2019-04-23T07:28:23.484Z,0.00
2019-04-23T07:29:22.532Z,0.00
2019-04-23T07:31:24.277Z,0.00
2019-04-23T07:32:15.536Z,0.00
2019-04-23T07:33:18.602Z,0.00
2019-04-23T07:34:12.436Z,0.00
2019-04-23T07:36:26.739Z,0.00
2019-04-23T07:37:17.608Z,0.00
2019-04-23T07:38:24.047Z,0.00
2019-04-23T07:39:35.235Z,0.00
2019-04-23T07:40:27.123Z,0.00
2019-04-23T07:41:23.708Z,0.00
2019-04-23T07:43:15.555Z,0.00
2019-04-23T07:44:35.529Z,0.00
2019-04-23T07:45:28.112Z,0.00
2019-04-23T07:46:29.769Z,0.00
2019-04-23T07:47:20.487Z,0.00
2019-04-23T07:48:14.940Z,0.00
2019-04-23T07:49:17.904Z,0.00
2019-04-23T07:50:28.953Z,0.00
2019-04-23T07:51:20.927Z,0.00
2019-04-23T07:53:17.007Z,0.00
2019-04-23T07:54:22.790Z,0.00
2019-04-23T07:55:25.561Z,0.00
2019-04-23T07:56:21.220Z,0.00
2019-04-23T07:57:18.792Z,0.00
2019-04-23T07:58:19.588Z,0.00
2019-04-23T07:59:20.668Z,0.00
2019-04-23T08:00:20.981Z,0.00
2019-04-23T08:01:14.146Z,0.00
2019-04-23T08:02:23.462Z,0.00
2019-04-23T08:03:29.384Z,0.00
2019-04-23T08:04:18.261Z,0.00
2019-04-23T08:06:15.568Z,0.00
2019-04-23T08:07:23.148Z,0.00
2019-04-23T08:08:12.145Z,0.00
2019-04-23T08:09:22.378Z,0.00
2019-04-23T08:10:14.095Z,0.00
2019-04-23T08:12:25.229Z,0.00
2019-04-23T08:13:22.319Z,0.00
2019-04-23T08:14:22.302Z,0.00
2019-04-23T08:15:18.178Z,0.00
2019-04-23T08:17:21.023Z,0.00
2019-04-23T08:18:18.046Z,0.00
2019-04-23T08:19:20.785Z,0.00
2019-04-23T08:20:19.466Z,0.00
2019-04-23T08:21:14.731Z,0.00
2019-04-23T08:23:16.199Z,0.00
2019-04-23T08:24:10.260Z,0.00
2019-04-23T08:25:17.808Z,0.00
2019-04-23T08:26:29.557Z,0.00
2019-04-23T08:28:25.837Z,0.00
2019-04-23T08:29:13.927Z,0.00
2019-04-23T08:30:09.771Z,0.00
2019-04-23T08:31:08.118Z,0.00
2019-04-23T08:32:13.920Z,0.00
2019-04-23T08:33:21.258Z,0.00
2019-04-23T08:34:28.529Z,0.00
2019-04-23T08:35:16.386Z,0.00
2019-04-23T08:36:23.710Z,0.00
2019-04-23T08:37:14.992Z,0.00
2019-04-23T08:39:20.791Z,0.00
2019-04-23T08:40:26.589Z,0.00
2019-04-23T08:41:32.121Z,0.00
2019-04-23T08:42:33.351Z,0.00
2019-04-23T08:44:21.996Z,0.00
2019-04-23T08:45:24.160Z,0.00
2019-04-23T08:46:14.073Z,0.00
2019-04-23T08:47:17.052Z,0.00
2019-04-23T08:49:25.421Z,0.00
2019-04-23T08:50:26.346Z,0.00
2019-04-23T08:51:31.485Z,0.00
2019-04-23T08:52:17.196Z,0.00
2019-04-23T08:53:37.398Z,0.00
2019-04-23T08:54:25.305Z,0.00
2019-04-23T08:55:16.937Z,0.00
2019-04-23T08:56:16.908Z,0.00
2019-04-23T08:57:14.400Z,0.00
2019-04-23T08:58:20.579Z,0.00
2019-04-23T08:59:24.967Z,0.00
2019-04-23T09:00:14.160Z,0.00
2019-04-23T09:01:19.844Z,0.00
2019-04-23T09:02:30.872Z,4.00
2019-04-23T09:03:18.802Z,0.00
2019-04-23T09:04:16.880Z,4.00
2019-04-23T09:05:18.103Z,0.00
2019-04-23T09:07:28.287Z,4.00
2019-04-23T09:09:21.910Z,8.00
2019-04-23T09:10:20.878Z,8.00
2019-04-23T09:11:30.773Z,12.00
2019-04-23T09:13:47.058Z,16.00
2019-04-23T09:14:15.862Z,20.00
2019-04-23T09:15:23.490Z,24.00
2019-04-23T09:16:22.383Z,28.00
2019-04-23T09:17:16.750Z,36.00
2019-04-23T09:18:16.615Z,40.00
2019-04-23T09:19:31.626Z,48.00
2019-04-23T09:21:16.125Z,64.00
2019-04-23T09:22:25.153Z,68.00
2019-04-23T09:23:11.575Z,80.00
2019-04-23T09:24:11.782Z,92.00
2019-04-23T09:25:20.273Z,104.00
2019-04-23T09:26:09.014Z,112.00
2019-04-23T09:27:22.588Z,120.00
2019-04-23T09:31:18.877Z,160.00
2019-04-23T09:33:13.686Z,176.00
2019-04-23T09:34:09.611Z,180.00
2019-04-23T09:36:18.158Z,156.00
2019-04-23T09:37:20.977Z,160.00
2019-04-23T09:38:11.532Z,160.00
2019-04-23T09:40:28.165Z,176.00
2019-04-23T09:41:25.071Z,184.00
2019-04-23T09:42:22.324Z,168.00
2019-04-23T09:43:13.867Z,144.00
2019-04-23T09:44:42.685Z,156.00
2019-04-23T09:45:17.180Z,404.00
2019-04-23T09:46:17.932Z,412.00
2019-04-23T09:47:29.340Z,460.00
2019-04-23T09:48:08.571Z,508.00
2019-04-23T09:49:20.447Z,556.00
2019-04-23T09:50:18.884Z,620.00
2019-04-23T09:51:21.000Z,660.00
2019-04-23T09:52:28.908Z,684.00
2019-04-23T09:53:25.237Z,712.00
2019-04-23T09:54:21.870Z,736.00
2019-04-23T09:55:23.235Z,752.00
2019-04-23T09:56:14.662Z,776.00
2019-04-23T09:57:10.349Z,808.00
2019-04-23T09:58:13.552Z,828.00
2019-04-23T10:00:18.776Z,984.00
2019-04-23T10:01:20.775Z,1048.00
2019-04-23T10:02:06.836Z,1068.00
2019-04-23T10:03:05.027Z,1104.00
2019-04-23T10:04:00.135Z,1228.00
2019-04-23T10:05:01.314Z,1456.00
2019-04-23T10:05:59.320Z,1712.00
2019-04-23T10:07:02.050Z,1904.00
2019-04-23T10:07:59.940Z,2016.00
2019-04-23T10:08:52.013Z,2160.00
2019-04-23T10:09:48.309Z,2428.00
2019-04-23T10:10:47.355Z,2756.00
2019-04-23T10:11:47.342Z,2948.00
2019-04-23T10:12:48.198Z,3224.00
2019-04-23T10:13:48.358Z,3416.00
2019-04-23T10:14:57.744Z,3584.00
2019-04-23T10:15:49.644Z,3748.00
2019-04-23T10:16:47.441Z,3928.00
2019-04-23T10:17:47.201Z,4248.00
2019-04-23T10:18:47.182Z,4604.00
2019-04-23T10:19:48.585Z,5428.00
2019-04-23T10:20:48.642Z,5388.00
2019-04-23T10:21:47.181Z,5284.00
2019-04-23T10:22:48.273Z,5356.00
2019-04-23T10:23:47.460Z,5512.00
2019-04-23T10:24:47.034Z,5640.00
2019-04-23T10:25:47.964Z,5668.00
2019-04-23T10:26:48.123Z,5676.00
2019-04-23T10:27:53.251Z,5796.00
2019-04-23T10:28:47.693Z,6036.00
2019-04-23T10:29:47.843Z,6464.00
2019-04-23T10:30:46.932Z,6740.00
2019-04-23T10:31:46.891Z,7016.00
2019-04-23T10:32:47.598Z,7348.00
2019-04-23T10:33:48.226Z,7624.00
2019-04-23T10:34:56.286Z,7700.00
2019-04-23T10:35:55.206Z,8036.00
2019-04-23T10:36:47.366Z,8684.00
2019-04-23T10:37:54.667Z,9268.00
2019-04-23T10:38:53.993Z,9604.00
2019-04-23T10:39:52.403Z,10108.00
2019-04-23T10:40:50.098Z,11580.00
2019-04-23T10:43:31.549Z,12100.00
2019-04-23T10:44:31.238Z,12372.00
2019-04-23T10:45:47.903Z,11920.00
2019-04-23T10:46:53.137Z,13152.00
2019-04-23T10:48:03.745Z,10928.00
2019-04-23T10:49:18.359Z,8844.00
2019-04-23T10:50:01.072Z,8400.00
2019-04-23T10:53:09.843Z,8940.00
2019-04-23T10:54:03.399Z,9648.00
2019-04-23T10:55:22.328Z,11980.00
2019-04-23T10:57:13.100Z,11528.00
2019-04-23T10:57:59.620Z,13828.00
2019-04-23T10:58:54.527Z,13596.00
2019-04-23T11:00:12.626Z,15488.00
2019-04-23T11:01:01.710Z,13512.00
2019-04-23T11:02:09.956Z,12764.00
2019-04-23T11:03:01.516Z,11904.00
2019-04-23T11:04:10.729Z,11012.00
2019-04-23T11:07:06.290Z,9352.00
2019-04-23T11:07:47.095Z,9332.00
2019-04-23T11:09:08.252Z,9360.00
2019-04-23T11:11:00.848Z,8892.00
2019-04-23T11:12:02.197Z,8300.00
2019-04-23T11:13:09.319Z,7772.00
2019-04-23T11:14:05.404Z,7724.00
2019-04-23T11:15:09.157Z,7424.00
2019-04-23T11:16:25.098Z,7152.00
2019-04-23T11:17:17.088Z,7372.00
2019-04-23T11:17:52.016Z,7732.00
2019-04-23T11:19:10.783Z,8544.00
2019-04-23T11:20:07.547Z,9572.00
2019-04-23T11:20:58.670Z,10428.00
2019-04-23T11:22:02.380Z,10500.00
2019-04-23T11:23:04.835Z,10428.00
2019-04-23T11:24:04.835Z,10812.00
2019-04-23T11:24:59.422Z,11296.00
2019-04-23T11:26:01.227Z,12460.00
2019-04-23T11:26:57.765Z,15020.00
2019-04-23T11:28:06.814Z,11516.00
2019-04-23T11:29:02.155Z,10624.00
2019-04-23T11:30:55.942Z,11536.00
2019-04-23T11:32:11.801Z,12424.00
2019-04-23T11:33:09.886Z,13420.00
2019-04-23T11:34:01.636Z,12780.00
2019-04-23T11:36:22.157Z,12144.00
2019-04-23T11:40:01.983Z,12092.00
2019-04-23T11:41:23.377Z,11348.00
2019-04-23T11:42:08.601Z,11016.00
2019-04-23T11:43:55.812Z,11552.00
2019-04-23T11:45:06.983Z,11764.00
2019-04-23T11:46:07.990Z,11708.00
2019-04-23T11:47:04.302Z,11944.00
2019-04-23T11:48:14.196Z,11528.00
2019-04-23T11:50:13.959Z,10200.00
2019-04-23T11:52:12.772Z,10248.00
2019-04-23T11:52:54.507Z,11476.00
2019-04-23T11:55:03.098Z,14472.00
2019-04-23T11:56:32.545Z,14712.00
2019-04-23T11:57:22.001Z,13920.00
2019-04-23T11:58:07.671Z,13868.00
2019-04-23T11:59:11.852Z,15492.00
2019-04-23T11:59:58.940Z,15580.00
2019-04-23T12:01:46.425Z,13740.00
2019-04-23T12:03:26.900Z,12084.00
2019-04-23T12:04:05.218Z,12804.00
2019-04-23T12:05:17.119Z,18944.00
2019-04-23T12:06:09.605Z,22016.00
2019-04-23T12:07:06.164Z,16288.00
2019-04-23T12:07:57.673Z,17152.00
2019-04-23T12:09:22.234Z,15912.00
2019-04-23T12:11:27.528Z,15744.00
2019-04-23T12:12:02.222Z,20928.00
2019-04-23T12:12:57.539Z,16992.00
2019-04-23T12:14:03.250Z,16288.00
2019-04-23T12:14:56.235Z,15824.00
2019-04-23T12:16:23.859Z,17088.00
2019-04-23T12:17:07.886Z,16640.00
2019-04-23T12:17:59.341Z,25728.00
2019-04-23T12:20:13.050Z,18144.00
2019-04-23T12:20:49.527Z,17248.00
2019-04-23T12:22:01.488Z,16512.00
2019-04-23T12:23:04.179Z,24672.00
2019-04-23T12:24:07.227Z,17728.00
2019-04-23T12:25:06.432Z,16736.00
2019-04-23T12:26:03.518Z,16704.00
2019-04-23T12:27:00.685Z,20384.00
2019-04-23T12:27:42.195Z,23520.00
2019-04-23T12:28:57.330Z,17568.00
2019-04-23T12:31:59.926Z,14816.00
2019-04-23T12:33:06.989Z,14404.00
2019-04-23T12:33:57.502Z,14476.00
2019-04-23T12:35:04.352Z,14852.00
2019-04-23T12:35:50.003Z,15340.00
2019-04-23T12:36:50.963Z,15404.00
2019-04-23T12:37:53.845Z,15800.00
2019-04-23T12:38:55.248Z,20896.00
2019-04-23T12:40:00.102Z,27648.00
2019-04-23T12:40:59.371Z,27808.00
2019-04-23T12:42:01.725Z,29728.00
2019-04-23T12:44:02.106Z,28288.00
2019-04-23T12:45:10.015Z,27872.00
2019-04-23T12:45:53.262Z,27840.00
2019-04-23T12:47:05.405Z,27264.00
2019-04-23T12:48:18.422Z,27936.00
2019-04-23T12:51:53.792Z,27744.00
2019-04-23T12:53:49.440Z,17632.00
2019-04-23T12:55:54.476Z,18880.00
2019-04-23T12:57:03.630Z,18656.00
2019-04-23T12:57:52.207Z,17632.00
2019-04-23T12:58:50.863Z,20768.00
2019-04-23T13:00:01.549Z,18016.00
2019-04-23T13:00:51.487Z,18048.00
2019-04-23T13:01:55.623Z,16992.00
2019-04-23T13:03:50.829Z,17696.00
2019-04-23T13:05:11.658Z,17600.00
2019-04-23T13:05:42.316Z,16992.00
2019-04-23T13:08:25.554Z,18208.00
2019-04-23T13:08:53.694Z,18400.00
2019-04-23T13:10:50.791Z,18528.00
2019-04-23T13:11:58.029Z,26848.00
2019-04-23T13:13:09.212Z,28000.00
2019-04-23T13:14:00.831Z,18976.00
2019-04-23T13:15:03.658Z,30304.00
2019-04-23T13:15:53.703Z,31040.00
2019-04-23T13:17:00.700Z,9316.00
2019-04-23T13:20:49.623Z,8260.00
2019-04-23T13:23:03.181Z,18336.00
2019-04-23T13:23:54.651Z,17440.00
2019-04-23T13:24:57.817Z,17280.00
2019-04-23T13:25:54.257Z,23936.00
2019-04-23T13:26:58.934Z,16704.00
2019-04-23T13:28:01.931Z,16108.00
2019-04-23T13:28:52.522Z,15576.00
2019-04-23T13:29:56.813Z,15392.00
2019-04-23T13:31:49.928Z,15060.00
2019-04-23T13:33:03.188Z,15516.00
2019-04-23T13:33:52.486Z,15828.00
2019-04-23T13:36:00.984Z,15740.00
2019-04-23T13:37:05.165Z,16064.00
2019-04-23T13:38:17.374Z,16512.00
2019-04-23T13:39:10.255Z,15776.00
2019-04-23T13:39:51.550Z,15684.00
2019-04-23T13:41:01.218Z,15196.00
2019-04-23T13:41:52.115Z,14508.00
2019-04-23T13:44:08.771Z,14360.00
2019-04-23T13:44:57.464Z,15488.00
2019-04-23T13:47:02.938Z,16180.00
2019-04-23T13:48:03.229Z,15656.00
2019-04-23T13:48:56.088Z,16896.00
2019-04-23T13:49:57.338Z,15372.00
2019-04-23T13:51:03.414Z,16768.00
2019-04-23T13:51:58.775Z,18528.00
2019-04-23T13:53:42.630Z,25760.00
2019-04-23T13:53:59.278Z,29568.00
2019-04-23T13:55:02.857Z,16812.00
2019-04-23T13:55:56.693Z,17472.00
2019-04-23T13:58:59.911Z,24160.00
2019-04-23T13:59:56.217Z,31648.00
2019-04-23T14:01:54.723Z,33856.00
2019-04-23T14:03:09.779Z,32864.00
2019-04-23T14:04:01.307Z,33152.00
2019-04-23T14:05:08.656Z,34176.00
2019-04-23T14:06:01.840Z,33184.00
2019-04-23T14:06:57.438Z,33984.00
2019-04-23T14:08:00.846Z,33824.00
2019-04-23T14:09:14.772Z,28800.00
2019-04-23T14:10:55.852Z,33888.00
2019-04-23T14:11:51.791Z,32256.00
2019-04-23T14:13:29.668Z,24512.00
2019-04-23T14:13:55.145Z,29024.00
2019-04-23T14:15:12.702Z,34304.00
2019-04-23T14:16:59.746Z,35488.00
2019-04-23T14:18:36.406Z,30912.00
2019-04-23T14:18:58.652Z,35776.00
2019-04-23T14:19:53.935Z,34784.00
2019-04-23T14:20:57.519Z,34400.00
2019-04-23T14:21:51.551Z,33632.00
2019-04-23T14:25:02.128Z,34656.00
2019-04-23T14:26:10.898Z,33184.00
2019-04-23T14:26:59.135Z,31072.00
2019-04-23T14:28:08.048Z,30304.00
2019-04-23T14:28:52.981Z,27008.00
2019-04-23T14:30:05.500Z,22528.00
2019-04-23T14:31:00.696Z,32128.00
2019-04-23T14:32:04.563Z,25920.00
2019-04-23T14:32:59.456Z,31904.00
2019-04-23T14:35:04.601Z,20864.00
2019-04-23T14:35:49.837Z,19392.00
2019-04-23T14:37:01.001Z,19040.00
2019-04-23T14:38:09.227Z,19296.00
2019-04-23T14:38:59.559Z,20512.00
2019-04-23T14:39:52.656Z,22240.00
2019-04-23T14:41:06.035Z,23360.00
2019-04-23T14:41:56.573Z,25024.00
2019-04-23T14:43:06.517Z,32672.00
2019-04-23T14:45:00.675Z,37728.00
2019-04-23T14:46:24.580Z,36160.00
2019-04-23T14:47:00.610Z,36896.00
2019-04-23T14:48:04.535Z,33760.00
2019-04-23T14:48:58.299Z,35520.00
2019-04-23T14:50:15.005Z,38752.00
2019-04-23T14:50:56.913Z,34144.00
2019-04-23T14:53:08.206Z,34912.00
2019-04-23T14:55:35.437Z,33504.00
2019-04-23T14:56:06.246Z,25312.00
2019-04-23T14:56:59.233Z,30080.00
2019-04-23T14:58:07.896Z,36320.00
2019-04-23T14:59:57.544Z,23872.00
2019-04-23T15:01:06.880Z,23616.00
2019-04-23T15:01:54.941Z,23456.00
2019-04-23T15:02:59.329Z,24736.00
2019-04-23T15:03:49.449Z,34240.00
2019-04-23T15:04:56.474Z,37696.00
2019-04-23T15:06:09.389Z,38304.00
2019-04-23T15:07:58.238Z,25120.00
2019-04-23T15:10:05.801Z,30112.00
2019-04-23T15:11:06.118Z,30176.00
2019-04-23T15:12:02.184Z,37024.00
2019-04-23T15:13:54.710Z,44192.00
2019-04-23T15:15:05.847Z,43200.00
2019-04-23T15:16:02.994Z,39776.00
2019-04-23T15:17:59.699Z,39712.00
2019-04-23T15:19:55.130Z,36832.00
2019-04-23T15:21:10.104Z,39232.00
2019-04-23T15:23:24.715Z,30752.00
2019-04-23T15:24:09.220Z,29216.00
2019-04-23T15:25:09.368Z,30496.00
2019-04-23T15:26:41.478Z,33472.00
2019-04-23T15:28:36.229Z,31936.00
2019-04-23T15:29:47.587Z,33696.00
2019-04-23T15:30:59.119Z,33472.00
2019-04-23T15:31:55.533Z,28672.00
2019-04-23T15:33:07.683Z,27488.00
2019-04-23T15:34:02.228Z,27776.00
2019-04-23T15:35:05.157Z,38336.00
2019-04-23T15:37:15.535Z,26208.00
2019-04-23T15:38:22.011Z,21632.00
2019-04-23T15:39:04.028Z,19456.00
2019-04-23T15:40:02.308Z,18592.00
2019-04-23T15:41:03.758Z,20640.00